createdAt,value
2019-01-29T00:01:51.099Z,2.60
2019-01-29T00:04:19.734Z,3.17
2019-01-29T00:06:48.409Z,3.20
2019-01-29T00:09:16.991Z,3.23
2019-01-29T00:11:45.575Z,2.60
2019-01-29T00:14:14.127Z,3.07
2019-01-29T00:16:42.741Z,3.37
2019-01-29T00:19:11.381Z,3.10
2019-01-29T00:21:39.957Z,3.00
2019-01-29T00:24:08.527Z,3.03
2019-01-29T00:26:37.127Z,2.57
2019-01-29T00:29:05.711Z,2.77
2019-01-29T00:31:34.377Z,2.87
2019-01-29T00:34:02.937Z,2.83
2019-01-29T00:36:31.527Z,2.90
2019-01-29T00:39:00.123Z,2.43
2019-01-29T00:41:28.774Z,2.20
2019-01-29T00:43:57.351Z,2.40
2019-01-29T00:46:25.913Z,2.53
2019-01-29T00:48:54.533Z,2.43
2019-01-29T00:51:23.189Z,2.87
2019-01-29T00:53:51.820Z,2.80
2019-01-29T00:56:20.393Z,2.60
2019-01-29T00:58:48.987Z,2.90
2019-01-29T01:01:17.643Z,2.30
2019-01-29T01:03:46.247Z,2.70
2019-01-29T01:06:14.821Z,2.47
2019-01-29T01:08:43.474Z,2.67
2019-01-29T01:11:12.064Z,2.93
2019-01-29T01:13:40.658Z,2.90
2019-01-29T01:16:09.324Z,2.70
2019-01-29T01:18:37.976Z,3.03
2019-01-29T01:21:06.548Z,2.70
2019-01-29T01:23:36.976Z,2.50
2019-01-29T01:26:05.636Z,2.80
2019-01-29T01:28:34.248Z,2.70
2019-01-29T01:31:02.824Z,3.20
2019-01-29T01:33:31.384Z,2.67
2019-01-29T01:35:59.930Z,2.80
2019-01-29T01:38:28.503Z,2.63
2019-01-29T01:40:57.075Z,3.00
2019-01-29T01:43:25.664Z,2.70
2019-01-29T01:45:54.234Z,3.00
2019-01-29T01:48:23.794Z,3.07
2019-01-29T01:50:52.423Z,3.00
2019-01-29T01:53:21.065Z,3.13
2019-01-29T01:55:49.720Z,3.07
2019-01-29T01:58:18.536Z,3.57
2019-01-29T02:00:47.135Z,2.93
2019-01-29T02:03:15.813Z,3.07
2019-01-29T02:05:44.380Z,2.83
2019-01-29T02:08:13.003Z,2.80
2019-01-29T02:10:41.587Z,2.83
2019-01-29T02:13:10.296Z,3.20
2019-01-29T02:15:38.901Z,2.53
2019-01-29T02:18:07.481Z,2.80
2019-01-29T02:20:36.123Z,2.80
2019-01-29T02:23:08.065Z,2.80
2019-01-29T02:25:34.922Z,2.97
2019-01-29T02:28:03.490Z,2.80
2019-01-29T02:30:32.072Z,2.83
2019-01-29T02:33:00.652Z,3.07
2019-01-29T02:35:29.310Z,2.70
2019-01-29T02:37:57.932Z,2.40
2019-01-29T02:40:27.137Z,2.90
2019-01-29T02:42:55.718Z,3.10
2019-01-29T02:45:24.516Z,2.60
2019-01-29T02:47:53.114Z,2.40
2019-01-29T02:50:21.804Z,2.77
2019-01-29T02:52:50.387Z,2.70
2019-01-29T02:55:18.956Z,2.73
2019-01-29T02:57:47.526Z,2.10
2019-01-29T03:00:17.174Z,2.50
2019-01-29T03:02:45.818Z,2.57
2019-01-29T03:05:14.513Z,2.20
2019-01-29T03:07:43.135Z,2.67
2019-01-29T03:10:12.495Z,2.53
2019-01-29T03:12:41.209Z,2.40
2019-01-29T03:15:11.390Z,2.33
2019-01-29T03:17:42.507Z,2.20
2019-01-29T03:20:12.349Z,2.10
2019-01-29T03:22:41.020Z,2.10
2019-01-29T03:25:09.928Z,2.00
2019-01-29T03:27:38.645Z,1.97
2019-01-29T03:30:08.113Z,1.70
2019-01-29T03:32:36.743Z,1.80
2019-01-29T03:35:08.114Z,1.73
2019-01-29T03:37:36.678Z,1.60
2019-01-29T03:40:06.018Z,1.63
2019-01-29T03:42:34.580Z,1.70
2019-01-29T03:45:03.151Z,1.53
2019-01-29T03:47:31.798Z,1.70
2019-01-29T03:50:00.423Z,1.60
2019-01-29T03:52:29.096Z,1.50
2019-01-29T03:54:57.655Z,1.53
2019-01-29T03:57:26.250Z,1.50
2019-01-29T03:59:55.802Z,1.60
2019-01-29T04:02:24.375Z,1.40
2019-01-29T04:04:52.955Z,1.60
2019-01-29T04:07:21.546Z,1.70
2019-01-29T04:09:50.139Z,1.30
2019-01-29T04:12:18.718Z,1.50
2019-01-29T04:14:47.293Z,1.20
2019-01-29T04:17:15.952Z,1.53
2019-01-29T04:19:44.590Z,1.70
2019-01-29T04:22:13.150Z,1.40
2019-01-29T04:24:41.727Z,1.30
2019-01-29T04:27:10.282Z,1.17
2019-01-29T04:29:38.928Z,1.30
2019-01-29T04:32:07.495Z,1.10
2019-01-29T04:34:36.157Z,0.97
2019-01-29T04:37:04.707Z,1.00
2019-01-29T04:39:33.446Z,1.13
2019-01-29T04:42:02.081Z,1.10
2019-01-29T04:44:30.737Z,1.10
2019-01-29T04:46:59.342Z,1.00
2019-01-29T04:49:28.022Z,1.17
2019-01-29T04:51:56.719Z,1.27
2019-01-29T04:54:25.384Z,1.23
2019-01-29T04:56:54.040Z,1.20
2019-01-29T04:59:22.625Z,1.30
2019-01-29T05:01:52.194Z,1.23
2019-01-29T05:04:20.874Z,1.20
2019-01-29T05:06:49.823Z,1.23
2019-01-29T05:09:18.470Z,1.30
2019-01-29T05:11:47.126Z,1.40
2019-01-29T05:14:15.692Z,1.13
2019-01-29T05:16:44.261Z,1.60
2019-01-29T05:19:12.895Z,1.40
2019-01-29T05:21:41.484Z,1.30
2019-01-29T05:24:10.080Z,1.10
2019-01-29T05:26:38.638Z,1.63
2019-01-29T05:29:07.269Z,1.50
2019-01-29T05:31:35.864Z,1.70
2019-01-29T05:34:04.546Z,1.30
2019-01-29T05:36:33.271Z,1.67
2019-01-29T05:39:01.842Z,1.80
2019-01-29T05:41:31.496Z,1.87
2019-01-29T05:44:00.132Z,2.17
2019-01-29T05:46:28.771Z,1.90
2019-01-29T05:48:57.370Z,1.57
2019-01-29T05:51:25.968Z,1.93
2019-01-29T05:53:54.579Z,1.70
2019-01-29T05:56:23.206Z,1.73
2019-01-29T05:58:51.768Z,1.70
2019-01-29T06:01:20.333Z,1.93
2019-01-29T06:03:48.995Z,1.63
2019-01-29T06:06:19.638Z,1.70
2019-01-29T06:08:48.258Z,1.97
2019-01-29T06:11:16.843Z,1.60
2019-01-29T06:13:45.502Z,2.07
2019-01-29T06:16:14.178Z,1.50
2019-01-29T06:18:42.796Z,1.50
2019-01-29T06:21:11.386Z,1.50
2019-01-29T06:23:40.023Z,1.50
2019-01-29T06:26:08.664Z,1.73
2019-01-29T06:28:37.329Z,1.80
2019-01-29T06:31:05.890Z,1.60
2019-01-29T06:33:34.474Z,1.60
2019-01-29T06:36:03.104Z,1.80
2019-01-29T06:38:31.669Z,1.57
2019-01-29T06:41:00.256Z,1.93
2019-01-29T06:43:28.927Z,2.10
2019-01-29T06:45:57.604Z,2.10
2019-01-29T06:48:26.175Z,1.80
2019-01-29T06:50:54.777Z,1.93
2019-01-29T06:53:23.345Z,2.20
2019-01-29T06:55:51.945Z,1.90
2019-01-29T06:58:20.576Z,1.70
2019-01-29T07:00:49.176Z,1.70
2019-01-29T07:03:17.919Z,1.87
2019-01-29T07:05:50.874Z,1.90
2019-01-29T07:08:19.495Z,1.73
2019-01-29T07:10:49.159Z,1.80
2019-01-29T07:13:17.778Z,2.00
2019-01-29T07:16:05.405Z,1.80
2019-01-29T07:19:07.995Z,1.87
2019-01-29T07:21:36.649Z,1.73
2019-01-29T07:24:05.339Z,1.70
2019-01-29T07:26:33.939Z,1.67
2019-01-29T07:29:02.578Z,1.93
2019-01-29T07:31:31.237Z,1.80
2019-01-29T07:33:59.900Z,1.90
2019-01-29T07:36:28.496Z,2.10
2019-01-29T07:38:57.101Z,1.80
2019-01-29T07:41:25.847Z,1.87
2019-01-29T07:43:54.469Z,2.03
2019-01-29T07:46:23.876Z,2.37
2019-01-29T07:48:52.605Z,2.73
2019-01-29T07:51:21.188Z,2.30
2019-01-29T07:53:49.854Z,2.50
2019-01-29T07:56:18.455Z,2.40
2019-01-29T07:58:47.025Z,2.50
2019-01-29T08:01:15.609Z,2.13
2019-01-29T08:03:44.242Z,2.40
2019-01-29T08:06:12.824Z,2.20
2019-01-29T08:08:41.460Z,2.57
2019-01-29T08:11:10.126Z,2.63
2019-01-29T08:13:38.813Z,2.20
2019-01-29T08:16:07.462Z,2.30
2019-01-29T08:18:36.037Z,2.53
2019-01-29T08:21:04.622Z,2.17
2019-01-29T08:23:33.358Z,2.17
2019-01-29T08:26:02.894Z,2.30
2019-01-29T08:28:31.567Z,2.40
2019-01-29T08:31:00.173Z,2.07
2019-01-29T08:33:28.838Z,2.23
2019-01-29T08:35:57.477Z,1.97
2019-01-29T08:38:26.136Z,2.23
2019-01-29T08:40:54.797Z,2.07
2019-01-29T08:43:23.440Z,2.00
2019-01-29T08:45:54.026Z,2.47
2019-01-29T08:48:22.300Z,2.13
2019-01-29T08:50:50.928Z,2.30
2019-01-29T08:53:19.585Z,2.00
2019-01-29T08:55:48.237Z,2.27
2019-01-29T08:58:16.921Z,2.00
2019-01-29T09:00:45.574Z,1.93
2019-01-29T09:03:14.229Z,2.23
2019-01-29T09:05:42.821Z,1.80
2019-01-29T09:08:13.156Z,1.90
2019-01-29T09:10:41.918Z,1.97
2019-01-29T09:13:11.556Z,1.90
2019-01-29T09:15:40.205Z,2.00
2019-01-29T09:18:08.895Z,2.10
2019-01-29T09:20:37.568Z,1.90
2019-01-29T09:23:06.171Z,1.80
2019-01-29T09:25:34.742Z,1.80
2019-01-29T09:28:04.317Z,1.80
2019-01-29T09:30:34.114Z,1.67
2019-01-29T09:33:02.750Z,1.60
2019-01-29T09:35:31.450Z,1.30
2019-01-29T09:38:00.044Z,1.90
2019-01-29T09:40:28.610Z,1.73
2019-01-29T09:42:57.251Z,1.90
2019-01-29T09:45:25.866Z,2.10
2019-01-29T09:47:54.530Z,2.00
2019-01-29T09:50:23.108Z,1.60
2019-01-29T09:52:51.695Z,1.83
2019-01-29T09:55:28.869Z,1.80
2019-01-29T09:57:51.617Z,2.03
2019-01-29T10:00:21.804Z,1.90
2019-01-29T10:02:50.399Z,2.20
2019-01-29T10:05:18.949Z,2.30
2019-01-29T10:07:47.719Z,2.03
2019-01-29T10:10:16.287Z,2.40
2019-01-29T10:12:44.931Z,2.03
2019-01-29T10:15:15.219Z,1.80
2019-01-29T10:17:43.885Z,2.03
2019-01-29T10:20:12.880Z,1.70
2019-01-29T10:22:41.477Z,2.10
2019-01-29T10:25:10.535Z,2.30
2019-01-29T10:27:39.310Z,2.07
2019-01-29T10:30:08.608Z,2.10
2019-01-29T10:32:37.192Z,2.03
2019-01-29T10:35:06.364Z,2.37
2019-01-29T10:37:35.019Z,2.30
2019-01-29T10:40:03.649Z,2.53
2019-01-29T10:42:32.317Z,2.50
2019-01-29T10:45:00.889Z,2.63
2019-01-29T10:47:29.541Z,2.60
2019-01-29T10:49:58.123Z,2.87
2019-01-29T10:52:26.688Z,2.20
2019-01-29T10:54:55.319Z,2.50
2019-01-29T10:57:24.044Z,2.33
2019-01-29T10:59:52.657Z,2.37
2019-01-29T11:02:21.297Z,2.07
2019-01-29T11:04:50.279Z,2.20
2019-01-29T11:07:18.884Z,2.27
2019-01-29T11:09:48.456Z,2.27
2019-01-29T11:12:17.120Z,2.53
2019-01-29T11:14:45.685Z,2.50
2019-01-29T11:17:14.352Z,2.30
2019-01-29T11:19:42.968Z,2.03
2019-01-29T11:22:11.623Z,2.27
2019-01-29T11:24:40.239Z,2.20
2019-01-29T11:27:08.911Z,1.87
2019-01-29T11:29:37.508Z,1.80
2019-01-29T11:32:06.075Z,2.07
2019-01-29T11:34:34.761Z,1.80
2019-01-29T11:37:03.474Z,1.80
2019-01-29T11:39:32.087Z,1.87
2019-01-29T11:42:00.659Z,2.10
2019-01-29T11:44:29.264Z,1.80
2019-01-29T11:46:57.903Z,1.70
2019-01-29T11:49:26.459Z,1.90
2019-01-29T11:51:55.046Z,1.90
2019-01-29T11:54:23.850Z,1.70
2019-01-29T11:56:52.476Z,1.67
2019-01-29T11:59:21.098Z,1.93
2019-01-29T12:01:49.707Z,1.80
2019-01-29T12:04:18.367Z,2.00
2019-01-29T12:06:46.956Z,1.53
2019-01-29T12:09:15.513Z,1.30
2019-01-29T12:11:44.089Z,1.70
2019-01-29T12:14:12.734Z,1.50
2019-01-29T12:16:41.455Z,1.73
2019-01-29T12:19:10.019Z,1.83
2019-01-29T12:21:38.612Z,2.00
2019-01-29T12:24:07.334Z,1.90
2019-01-29T12:26:35.924Z,1.90
2019-01-29T12:29:04.531Z,1.40
2019-01-29T12:31:33.131Z,1.60
2019-01-29T12:34:01.691Z,1.33
2019-01-29T12:36:31.305Z,1.70
2019-01-29T12:38:59.904Z,1.50
2019-01-29T12:41:28.527Z,1.40
2019-01-29T12:43:58.205Z,1.60
2019-01-29T12:46:26.801Z,2.00
2019-01-29T12:48:56.328Z,1.80
2019-01-29T12:51:31.666Z,2.00
2019-01-29T12:54:00.243Z,1.97
2019-01-29T12:56:31.301Z,2.27
2019-01-29T12:58:59.890Z,2.40
2019-01-29T13:01:28.614Z,2.00
2019-01-29T13:03:57.239Z,2.37
2019-01-29T13:06:25.902Z,2.00
2019-01-29T13:08:54.536Z,2.90
2019-01-29T13:11:23.201Z,2.40
2019-01-29T13:13:51.787Z,2.20
2019-01-29T13:16:20.386Z,2.30
2019-01-29T13:18:49.080Z,2.20
2019-01-29T13:21:17.710Z,2.52
2019-01-29T13:23:46.354Z,2.70
2019-01-29T13:26:14.921Z,2.65
2019-01-29T13:28:43.519Z,3.00
2019-01-29T13:31:12.102Z,2.70
2019-01-29T13:33:40.668Z,3.00
2019-01-29T13:36:09.358Z,2.70
2019-01-29T13:38:38.020Z,2.57
2019-01-29T13:41:06.753Z,3.00
2019-01-29T13:43:35.370Z,2.97
2019-01-29T13:46:03.978Z,3.47
2019-01-29T13:48:32.594Z,2.97
2019-01-29T13:51:01.968Z,3.33
2019-01-29T13:53:30.648Z,3.00
2019-01-29T13:56:00.269Z,3.90
2019-01-29T13:58:28.861Z,3.83
2019-01-29T14:00:57.601Z,3.20
2019-01-29T14:03:26.231Z,3.90
2019-01-29T14:05:54.816Z,3.73
2019-01-29T14:08:23.406Z,3.20
2019-01-29T14:10:52.011Z,3.47
2019-01-29T14:13:20.640Z,3.60
2019-01-29T14:15:56.532Z,3.73
2019-01-29T14:18:26.131Z,3.70
2019-01-29T14:20:54.827Z,4.00
2019-01-29T14:23:23.529Z,4.07
2019-01-29T14:25:52.147Z,3.73
2019-01-29T14:28:20.851Z,4.00
2019-01-29T14:30:49.746Z,4.07
2019-01-29T14:33:18.421Z,4.07
2019-01-29T14:35:46.993Z,4.00
2019-01-29T14:38:34.856Z,3.90
2019-01-29T14:41:03.484Z,4.50
2019-01-29T14:43:32.248Z,3.83
2019-01-29T14:46:00.850Z,4.20
2019-01-29T14:48:29.453Z,4.20
2019-01-29T14:50:58.125Z,4.07
2019-01-29T14:53:26.784Z,3.93
2019-01-29T14:55:55.563Z,3.73
2019-01-29T14:58:24.260Z,4.17
2019-01-29T15:00:53.019Z,4.00
2019-01-29T15:03:21.709Z,3.87
2019-01-29T15:05:50.335Z,3.83
2019-01-29T15:08:19.100Z,3.60
2019-01-29T15:10:47.783Z,4.23
2019-01-29T15:13:16.496Z,4.20
2019-01-29T15:15:51.816Z,4.50
2019-01-29T15:18:23.984Z,4.20
2019-01-29T15:20:52.694Z,4.60
2019-01-29T15:23:21.565Z,4.40
2019-01-29T15:25:50.164Z,4.33
2019-01-29T15:28:18.762Z,4.20
2019-01-29T15:30:47.704Z,4.30
2019-01-29T15:33:16.342Z,3.60
2019-01-29T15:35:45.007Z,3.97
2019-01-29T15:38:13.611Z,3.80
2019-01-29T15:40:42.207Z,4.00
2019-01-29T15:43:10.891Z,3.73
2019-01-29T15:45:39.541Z,3.63
2019-01-29T15:48:08.106Z,3.83
2019-01-29T15:50:36.688Z,2.97
2019-01-29T15:53:05.511Z,3.33
2019-01-29T15:55:34.221Z,3.93
2019-01-29T15:58:02.793Z,4.13
2019-01-29T16:00:31.411Z,3.97
2019-01-29T16:03:00.023Z,3.50
2019-01-29T16:05:28.674Z,3.57
2019-01-29T16:07:57.397Z,3.47
2019-01-29T16:10:38.727Z,3.87
2019-01-29T16:13:00.496Z,3.83
2019-01-29T16:15:29.246Z,4.00
2019-01-29T16:17:57.943Z,3.40
2019-01-29T16:20:26.749Z,3.50
2019-01-29T16:22:55.612Z,4.07
2019-01-29T16:25:25.232Z,3.83
2019-01-29T16:27:53.887Z,3.60
2019-01-29T16:30:26.202Z,3.97
2019-01-29T16:32:54.923Z,3.83
2019-01-29T16:35:25.034Z,4.07
2019-01-29T16:37:53.774Z,4.20
2019-01-29T16:40:22.603Z,4.43
2019-01-29T16:42:51.299Z,4.50
2019-01-29T16:45:21.185Z,4.53
2019-01-29T16:47:49.950Z,5.00
2019-01-29T16:50:18.708Z,4.80
2019-01-29T16:52:47.701Z,5.57
2019-01-29T16:55:17.427Z,4.97
2019-01-29T16:57:46.206Z,5.13
2019-01-29T17:00:16.595Z,5.33
2019-01-29T17:02:45.313Z,5.20
2019-01-29T17:05:14.017Z,5.00
2019-01-29T17:07:42.723Z,5.20
2019-01-29T17:10:11.499Z,5.47
2019-01-29T17:12:40.240Z,5.30
2019-01-29T17:15:10.194Z,5.77
2019-01-29T17:17:38.891Z,5.47
2019-01-29T17:20:09.714Z,5.63
2019-01-29T17:22:38.499Z,5.20
2019-01-29T17:25:07.173Z,5.57
2019-01-29T17:27:40.294Z,5.37
2019-01-29T17:30:06.394Z,4.90
2019-01-29T17:32:35.006Z,5.80
2019-01-29T17:35:03.622Z,5.50
2019-01-29T17:37:32.355Z,5.40
2019-01-29T17:40:01.667Z,5.53
2019-01-29T17:42:30.363Z,5.50
2019-01-29T17:44:59.264Z,5.77
2019-01-29T17:47:27.995Z,6.27
2019-01-29T17:49:57.006Z,6.20
2019-01-29T17:52:25.622Z,5.80
2019-01-29T17:54:54.317Z,5.50
2019-01-29T17:57:23.148Z,5.67
2019-01-29T17:59:51.788Z,5.67
2019-01-29T18:02:20.544Z,6.17
2019-01-29T18:04:49.136Z,6.23
2019-01-29T18:07:17.822Z,6.07
2019-01-29T18:09:46.678Z,5.63
2019-01-29T18:12:15.481Z,6.70
2019-01-29T18:14:44.186Z,6.10
2019-01-29T18:17:12.854Z,5.70
2019-01-29T18:19:41.505Z,6.50
2019-01-29T18:22:10.194Z,6.17
2019-01-29T18:24:38.850Z,6.37
2019-01-29T18:27:08.481Z,6.23
2019-01-29T18:29:37.109Z,7.03
2019-01-29T18:32:05.861Z,6.97
2019-01-29T18:34:34.703Z,6.97
2019-01-29T18:37:03.322Z,6.40
2019-01-29T18:39:32.113Z,6.60
2019-01-29T18:42:00.996Z,6.80
2019-01-29T18:44:29.862Z,6.90
2019-01-29T18:46:59.549Z,6.50
2019-01-29T18:49:28.280Z,6.63
2019-01-29T18:51:57.329Z,7.10
2019-01-29T18:54:26.489Z,7.13
2019-01-29T18:56:55.386Z,6.90
2019-01-29T18:59:24.291Z,7.27
2019-01-29T19:01:53.030Z,7.23
2019-01-29T19:04:21.796Z,7.20
2019-01-29T19:06:50.582Z,7.57
2019-01-29T19:09:19.273Z,7.37
2019-01-29T19:11:48.050Z,7.97
2019-01-29T19:14:17.057Z,7.93
2019-01-29T19:16:45.897Z,8.53
2019-01-29T19:19:14.827Z,7.93
2019-01-29T19:21:43.597Z,7.27
2019-01-29T19:24:12.354Z,7.60
2019-01-29T19:26:41.143Z,7.20
2019-01-29T19:29:09.971Z,7.70
2019-01-29T19:31:38.743Z,7.40
2019-01-29T19:34:07.866Z,7.03
2019-01-29T19:36:36.722Z,6.90
2019-01-29T19:39:06.863Z,7.37
2019-01-29T19:41:35.695Z,7.10
2019-01-29T19:44:04.484Z,7.50
2019-01-29T19:46:33.201Z,7.07
2019-01-29T19:49:02.686Z,7.30
2019-01-29T19:51:31.274Z,7.20
2019-01-29T19:54:00.118Z,7.83
2019-01-29T19:56:29.244Z,8.00
2019-01-29T19:58:58.061Z,7.60
2019-01-29T20:01:26.782Z,7.93
2019-01-29T20:03:55.428Z,8.10
2019-01-29T20:06:24.357Z,7.83
2019-01-29T20:08:53.289Z,7.77
2019-01-29T20:11:21.993Z,7.60
2019-01-29T20:13:50.733Z,8.00
2019-01-29T20:16:19.416Z,8.17
2019-01-29T20:18:49.121Z,7.87
2019-01-29T20:21:17.922Z,7.63
2019-01-29T20:23:47.619Z,8.03
2019-01-29T20:26:16.295Z,7.83
2019-01-29T20:28:44.976Z,7.87
2019-01-29T20:31:15.057Z,8.10
2019-01-29T20:33:43.911Z,8.60
2019-01-29T20:36:12.818Z,8.13
2019-01-29T20:38:41.504Z,8.50
2019-01-29T20:41:10.390Z,8.83
2019-01-29T20:43:39.312Z,8.03
2019-01-29T20:46:08.233Z,8.23
2019-01-29T20:48:36.962Z,8.27
2019-01-29T20:51:05.711Z,7.95
2019-01-29T20:53:34.561Z,7.90
2019-01-29T20:56:03.319Z,8.67
2019-01-29T20:58:33.189Z,8.63
2019-01-29T21:01:02.117Z,8.93
2019-01-29T21:03:31.263Z,8.83
2019-01-29T21:06:00.219Z,7.93
2019-01-29T21:08:29.052Z,8.95
2019-01-29T21:10:57.984Z,8.27
2019-01-29T21:13:26.808Z,8.90
2019-01-29T21:15:56.157Z,8.83
2019-01-29T21:18:25.026Z,8.63
2019-01-29T21:20:57.270Z,8.43
2019-01-29T21:23:24.521Z,9.17
2019-01-29T21:25:53.315Z,9.40
2019-01-29T21:28:22.110Z,9.35
2019-01-29T21:30:51.697Z,9.70
2019-01-29T21:33:20.503Z,9.77
2019-01-29T21:35:49.309Z,9.70
2019-01-29T21:38:18.013Z,9.77
2019-01-29T21:40:46.695Z,9.30
2019-01-29T21:43:15.429Z,9.77
2019-01-29T21:45:44.169Z,10.30
2019-01-29T21:48:13.089Z,9.47
2019-01-29T21:50:42.022Z,9.73
2019-01-29T21:53:10.680Z,9.43
2019-01-29T21:55:39.574Z,9.57
2019-01-29T21:58:08.402Z,9.50
2019-01-29T22:00:38.354Z,9.57
2019-01-29T22:03:07.433Z,9.33
2019-01-29T22:05:36.188Z,9.63
2019-01-29T22:08:05.392Z,9.55
2019-01-29T22:10:34.107Z,10.57
2019-01-29T22:13:02.772Z,10.50
2019-01-29T22:15:32.446Z,10.30
2019-01-29T22:18:01.382Z,9.83
2019-01-29T22:20:30.420Z,10.93
2019-01-29T22:22:59.300Z,10.37
2019-01-29T22:25:27.995Z,10.23
2019-01-29T22:27:56.605Z,11.00
2019-01-29T22:30:26.433Z,10.48
2019-01-29T22:32:55.211Z,11.37
2019-01-29T22:35:23.877Z,10.67
2019-01-29T22:37:52.579Z,10.07
2019-01-29T22:40:22.135Z,10.65
2019-01-29T22:42:50.842Z,10.07
2019-01-29T22:45:19.498Z,10.57
2019-01-29T22:47:48.104Z,9.80
2019-01-29T22:50:18.412Z,9.97
2019-01-29T22:52:47.098Z,10.40
2019-01-29T22:55:15.779Z,11.10
2019-01-29T22:57:44.432Z,10.67
2019-01-29T23:00:43.585Z,10.70
2019-01-29T23:03:12.171Z,10.17
2019-01-29T23:05:40.763Z,10.13
2019-01-29T23:08:09.385Z,10.23
2019-01-29T23:10:39.150Z,10.97
2019-01-29T23:13:07.850Z,10.10
2019-01-29T23:15:36.485Z,10.03
2019-01-29T23:18:05.107Z,10.70
2019-01-29T23:20:33.768Z,9.73
2019-01-29T23:23:02.536Z,10.17
2019-01-29T23:25:31.214Z,10.33
2019-01-29T23:27:59.868Z,10.30
2019-01-29T23:30:28.472Z,10.37
2019-01-29T23:32:57.258Z,10.50
2019-01-29T23:35:26.004Z,9.30
2019-01-29T23:37:54.688Z,10.40
2019-01-29T23:40:24.321Z,10.33
2019-01-29T23:42:54.073Z,10.37
2019-01-29T23:45:22.740Z,9.93
2019-01-29T23:48:00.329Z,10.27
2019-01-29T23:50:29.736Z,10.60
2019-01-29T23:52:58.348Z,10.33
2019-01-29T23:55:26.994Z,10.03
2019-01-29T23:57:55.657Z,9.50
